Weather reports worldwide

Advertisment
Bridgefoot, United Kingdom (99137): temperature & dewpoint: 12.07.2018 19:00:00 - 18.07.2018 19:00:00 (BST)Bridgefoot, United Kingdom (99137): precipitation: 12.07.2018 19:00:00 - 18.07.2018 19:00:00 (BST)
Date & Time tt [°C] td [°C] rr [mm]
18.07.2018 19:00:00 - - -
18.07.2018 18:00:00 18,9 12,8 0,0
18.07.2018 17:00:00 20,1 12,0 0,0
18.07.2018 16:00:00 21,5 12,8 0,0
18.07.2018 15:00:00 21,7 14,2 0,0
18.07.2018 14:00:00 21,3 11,9 0,0
18.07.2018 13:00:00 21,4 12,0 0,0
18.07.2018 12:00:00 19,3 12,0 0,0
18.07.2018 11:00:00 18,3 13,0 0,0
18.07.2018 10:00:00 17,6 13,1 0,0
18.07.2018 09:00:00 17,1 13,3 0,0
18.07.2018 08:00:00 15,9 13,1 0,0
18.07.2018 07:00:00 11,8 11,7 0,0
18.07.2018 06:00:00 10,3 10,3 0,0
18.07.2018 05:00:00 9,5 9,4 0,0
18.07.2018 04:00:00 9,1 9,0 0,0
18.07.2018 03:00:00 8,6 8,5 0,0
18.07.2018 02:00:00 8,1 7,8 0,0
18.07.2018 01:00:00 8,8 8,3 0,0
18.07.2018 00:00:00 9,2 8,3 0,0
17.07.2018 23:00:00 10,4 9,1 0,0
17.07.2018 22:00:00 12,4 10,3 0,0
17.07.2018 21:00:00 14,3 11,1 0,0
17.07.2018 20:00:00 15,3 11,3 0,0
17.07.2018 19:00:00 16,3 10,6 0,0
17.07.2018 18:00:00 17,3 10,8 0,0
17.07.2018 17:00:00 17,2 10,7 0,0
17.07.2018 16:00:00 18,7 11,2 0,0
17.07.2018 15:00:00 18,7 11,5 0,0
17.07.2018 14:00:00 18,7 12,9 0,0
17.07.2018 13:00:00 17,3 12,2 0,0
17.07.2018 12:00:00 16,8 12,4 0,0
17.07.2018 11:00:00 15,3 12,5 0,0
17.07.2018 10:00:00 15,3 13,2 0,0
17.07.2018 09:00:00 14,8 12,9 0,0
17.07.2018 08:00:00 14,8 14,0 0,0
17.07.2018 07:00:00 13,7 13,6 0,0
17.07.2018 06:00:00 11,9 11,8 0,0
17.07.2018 05:00:00 11,9 11,9 0,0
17.07.2018 04:00:00 11,1 11,0 0,0
17.07.2018 03:00:00 10,9 10,7 0,0
17.07.2018 02:00:00 10,8 10,8 0,0
17.07.2018 01:00:00 10,8 10,6 0,0
17.07.2018 00:00:00 11,0 10,6 0,0
16.07.2018 23:00:00 11,9 11,5 0,0
16.07.2018 22:00:00 12,7 11,9 0,0
16.07.2018 21:00:00 13,5 12,7 0,2
16.07.2018 20:00:00 13,6 12,6 1,0
16.07.2018 19:00:00 14,3 12,4 0,8
16.07.2018 18:00:00 15,0 12,6 0,4
16.07.2018 17:00:00 15,1 10,6 0,8
16.07.2018 16:00:00 17,6 9,5 0,0
16.07.2018 15:00:00 19,6 9,3 0,0
16.07.2018 14:00:00 19,4 10,0 0,0
16.07.2018 13:00:00 18,9 12,4 0,0
16.07.2018 12:00:00 17,4 13,1 0,0
16.07.2018 11:00:00 15,9 13,0 0,0
16.07.2018 10:00:00 15,6 12,6 0,0
16.07.2018 09:00:00 15,4 13,7 0,0
16.07.2018 08:00:00 15,2 14,5 0,0
16.07.2018 07:00:00 15,1 14,7 0,0
16.07.2018 06:00:00 15,7 15,3 0,0
16.07.2018 05:00:00 15,7 15,3 0,2
16.07.2018 04:00:00 16,0 15,5 0,2
16.07.2018 03:00:00 16,4 16,0 1,4
16.07.2018 02:00:00 16,4 16,1 0,8
16.07.2018 01:00:00 16,2 15,9 0,6
16.07.2018 00:00:00 16,1 15,6 0,2
15.07.2018 23:00:00 16,2 15,6 0,4
15.07.2018 22:00:00 16,4 15,2 0,0
15.07.2018 21:00:00 16,9 15,2 0,0
15.07.2018 20:00:00 17,8 15,0 0,0
15.07.2018 19:00:00 19,3 14,9 0,0
15.07.2018 18:00:00 19,5 14,9 0,0
15.07.2018 17:00:00 20,3 14,7 0,0
15.07.2018 16:00:00 21,4 14,5 0,0
15.07.2018 15:00:00 20,6 15,8 0,0
15.07.2018 14:00:00 17,9 16,7 0,0
15.07.2018 13:00:00 18,7 15,2 0,0
15.07.2018 12:00:00 19,1 14,8 0,0
15.07.2018 11:00:00 20,2 14,1 0,0
15.07.2018 10:00:00 20,4 14,3 0,0
15.07.2018 09:00:00 18,9 14,1 0,0
15.07.2018 08:00:00 18,1 14,3 0,0
15.07.2018 07:00:00 17,2 14,0 0,0
15.07.2018 06:00:00 16,4 14,0 0,0
15.07.2018 05:00:00 16,6 14,4 0,0
15.07.2018 04:00:00 16,5 14,6 0,0
15.07.2018 03:00:00 16,3 14,5 0,0
15.07.2018 02:00:00 16,2 14,5 0,0
15.07.2018 01:00:00 15,8 14,0 0,0
15.07.2018 00:00:00 15,5 13,6 0,0
14.07.2018 23:00:00 15,5 13,4 0,0
14.07.2018 22:00:00 15,7 13,3 0,0
14.07.2018 21:00:00 17,3 13,9 0,0
14.07.2018 20:00:00 19,7 12,7 0,0
14.07.2018 19:00:00 20,6 12,1 0,0
14.07.2018 18:00:00 20,6 11,4 0,0
14.07.2018 17:00:00 20,9 12,1 0,0
14.07.2018 16:00:00 21,2 13,2 0,0
14.07.2018 15:00:00 20,8 13,1 0,0
14.07.2018 14:00:00 21,0 13,9 0,0
14.07.2018 13:00:00 20,5 13,3 0,0
14.07.2018 12:00:00 20,4 14,3 0,0
14.07.2018 11:00:00 20,1 14,0 0,0
14.07.2018 10:00:00 19,3 13,7 0,0
14.07.2018 09:00:00 18,4 13,1 0,0
14.07.2018 08:00:00 16,5 13,6 0,0
14.07.2018 07:00:00 11,1 11,1 0,0
14.07.2018 06:00:00 9,4 9,3 0,0
14.07.2018 05:00:00 8,8 8,5 0,0
14.07.2018 04:00:00 10,0 9,7 0,0
14.07.2018 03:00:00 11,6 11,5 0,0
14.07.2018 02:00:00 11,6 11,3 0,0
14.07.2018 01:00:00 11,6 10,8 0,0
14.07.2018 00:00:00 13,0 12,1 0,0
13.07.2018 23:00:00 13,1 11,8 0,0
13.07.2018 22:00:00 14,3 12,0 0,0
13.07.2018 21:00:00 16,7 12,7 0,0
13.07.2018 20:00:00 17,0 12,6 0,0
13.07.2018 19:00:00 18,6 13,0 0,0
13.07.2018 18:00:00 19,6 13,9 0,0
13.07.2018 17:00:00 18,2 14,7 0,0
13.07.2018 16:00:00 19,8 16,0 0,0
13.07.2018 15:00:00 17,6 15,1 0,0
13.07.2018 14:00:00 17,2 15,2 0,0
13.07.2018 13:00:00 16,1 14,5 0,0
13.07.2018 12:00:00 17,3 15,4 0,0
13.07.2018 11:00:00 17,0 15,3 0,0
13.07.2018 10:00:00 17,1 15,4 0,0
13.07.2018 09:00:00 15,9 15,2 0,0
13.07.2018 08:00:00 15,1 14,5 0,0
13.07.2018 07:00:00 14,4 14,0 0,0
13.07.2018 06:00:00 13,4 13,1 0,0
13.07.2018 05:00:00 12,6 12,3 0,0
13.07.2018 04:00:00 13,1 12,5 0,0
13.07.2018 03:00:00 13,9 13,4 0,0
13.07.2018 02:00:00 14,2 13,4 0,0
13.07.2018 01:00:00 14,8 14,0 0,0
13.07.2018 00:00:00 15,2 14,0 0,0
12.07.2018 23:00:00 15,5 14,0 0,0
12.07.2018 22:00:00 16,6 14,5 0,0
12.07.2018 21:00:00 17,9 14,8 0,0
12.07.2018 20:00:00 19,6 14,4 0,0
12.07.2018 19:00:00 21,0 13,7 0,0

tt = temperature
td = dewpoint
rr = precipitation

Next stations